Home   Weather   USA   Houston   Past weeks
Flag for USA

Past Weather in Houston, Texas, USA — February 2021

Currently: 76 °F. Overcast. (Weather station: Houston Hobby Airport, USA). See more current weather

February 2021 Weather in Houston — Graph

°F

High & Low Weather Summary for February 2021

 TemperatureHumidityPressure
High82 °F (Feb 28, 12:53 pm)97% (Feb 9, 6:53 am)30.57 "Hg (Feb 9, 6:53 am)
Low15 °F (Feb 16, 6:53 am)15% (Feb 22, 4:53 pm)29.78 "Hg (Feb 4, 3:53 pm)
Average53 °F74%30.08 "Hg
* Reported Feb 1 12:53 am — Feb 28 11:53 pm, Houston. Weather by CustomWeather, © 2021

Note: Actual official high and low records may vary slightly from our data, if they occured in-between our weather recording intervals... More about our weather records

Houston Weather History for February 1, 2021

Scroll right to see more
 ConditionsComfort  
Time TempWeatherWind HumidityBarometerVisibility
12:53 am
Mon, Feb 1
51 °FClear.9 mph52%30.35 "Hg10 mi
1:53 am50 °FClear.9 mph54%30.36 "Hg10 mi
2:53 am47 °FClear.7 mph61%30.36 "Hg10 mi
3:53 am47 °FClear.8 mph61%30.36 "Hg10 mi
4:53 am46 °FClear.9 mph63%30.37 "Hg10 mi
5:53 am46 °FClear.13 mph63%30.39 "Hg10 mi
6:53 am44 °FPassing clouds.12 mph68%30.40 "Hg10 mi
7:53 am46 °FPassing clouds.9 mph63%30.41 "Hg10 mi
8:53 am49 °FPassing clouds.15 mph57%30.42 "Hg10 mi
9:53 am51 °FSunny.16 mph52%30.42 "Hg10 mi
10:53 am55 °FSunny.9 mph45%30.41 "Hg10 mi
11:53 am58 °FPassing clouds.9 mph39%30.38 "Hg10 mi
12:53 pm61 °FPassing clouds.12 mph32%30.36 "Hg10 mi
1:53 pm64 °FPassing clouds.14 mph26%30.32 "Hg10 mi
2:53 pm65 °FPassing clouds.8 mph22%30.31 "Hg10 mi
3:53 pm65 °FPassing clouds.14 mph22%30.30 "Hg10 mi
4:53 pm64 °FPassing clouds.14 mph20%30.30 "Hg10 mi
5:53 pm60 °FPassing clouds.10 mph21%30.30 "Hg10 mi
6:53 pm57 °FPassing clouds.6 mph25%30.30 "Hg10 mi
7:53 pm57 °FClear.5 mph26%30.31 "Hg10 mi
8:53 pm54 °FClear.6 mph31%30.32 "Hg10 mi
9:53 pm52 °FClear.3 mph37%30.32 "Hg10 mi
10:53 pm49 °FPassing clouds.7 mph44%30.32 "Hg10 mi
11:53 pm52 °FPassing clouds.8 mph43%30.33 "Hg10 mi
Weather by CustomWeather, © 2021

See weather overview